Time;durP1;ratioP1;P1;durP2;ratioP2;P2;SDS_P1;SDS_P2;PMS_P1;PMS_P2;Temp;Humidity;BMP_temperature;BMP_pressure;BME280_temperature;BME280_humidity;BME280_pressure;Samples;Min_cycle;Max_cycle;Signal;HPM_P1;HPM_P2
2023/12/31 00:00:15;;;;;;;;;5.75;4.50;;;;;12.11;82.58;99936.97;5058162;28;47170;-63
2023/12/31 00:02:40;;;;;;;;;5.00;4.00;;;;;12.10;82.84;99908.47;5074584;28;45362;-63
2023/12/31 00:05:06;;;;;;;;;4.00;3.00;;;;;12.03;82.76;99891.00;5080993;28;45506;-63
2023/12/31 00:07:31;;;;;;;;;5.00;3.75;;;;;12.05;82.83;99889.13;5074180;28;45432;-63
2023/12/31 00:09:57;;;;;;;;;6.25;3.50;;;;;12.03;82.44;99875.81;5081013;28;45460;-63
2023/12/31 00:12:22;;;;;;;;;3.25;3.00;;;;;12.03;82.92;99857.09;5080801;28;45323;-63
2023/12/31 00:14:47;;;;;;;;;3.25;3.25;;;;;12.06;82.98;99856.06;5081054;28;45324;-63
2023/12/31 00:17:13;;;;;;;;;5.00;5.00;;;;;12.09;82.84;99861.25;5062521;28;45733;-63
2023/12/31 00:19:38;;;;;;;;;2.00;2.00;;;;;12.04;82.70;99848.13;5080373;28;45425;-63
2023/12/31 00:22:03;;;;;;;;;5.00;5.00;;;;;11.98;82.87;99840.44;5072505;28;50608;-63
2023/12/31 00:24:29;;;;;;;;;6.25;4.75;;;;;12.05;83.25;99833.78;5078950;28;45495;-63
2023/12/31 00:26:54;;;;;;;;;3.00;3.00;;;;;12.00;83.16;99817.13;5080543;28;45425;-63
2023/12/31 00:29:19;;;;;;;;;5.00;5.00;;;;;12.08;83.16;99829.22;5080207;28;58584;-63
2023/12/31 00:31:45;;;;;;;;;3.75;3.75;;;;;12.11;83.11;99835.31;5080344;28;45394;-63
2023/12/31 00:34:10;;;;;;;;;4.00;3.25;;;;;11.94;83.01;99801.41;5079857;28;45556;-63
2023/12/31 00:36:35;;;;;;;;;5.00;4.00;;;;;12.07;83.04;99798.09;5080492;28;45374;-63
2023/12/31 00:39:01;;;;;;;;;4.25;4.25;;;;;12.10;83.20;99805.97;5075449;28;46088;-63
2023/12/31 00:41:26;;;;;;;;;7.75;4.50;;;;;12.00;83.28;99794.88;5070986;28;59049;-63
2023/12/31 00:43:51;;;;;;;;;6.50;5.50;;;;;12.10;83.33;99809.50;5079809;28;57551;-63
2023/12/31 00:46:16;;;;;;;;;6.00;4.00;;;;;12.08;83.26;99794.44;5062287;28;45583;-63
2023/12/31 00:48:42;;;;;;;;;4.25;4.25;;;;;12.03;83.42;99784.03;5059151;28;48054;-63
2023/12/31 00:51:07;;;;;;;;;5.00;4.00;;;;;11.98;83.19;99765.53;5079269;28;61813;-63
2023/12/31 00:53:32;;;;;;;;;3.25;3.00;;;;;12.12;83.38;99775.47;5080289;28;45587;-63
2023/12/31 00:55:58;;;;;;;;;6.50;6.00;;;;;12.01;83.21;99752.00;5080106;28;45318;-63
2023/12/31 00:58:23;;;;;;;;;4.50;3.75;;;;;11.99;83.46;99734.31;5063362;28;49811;-63
2023/12/31 01:00:48;;;;;;;;;5.00;4.00;;;;;12.09;83.51;99756.91;5080031;28;47622;-63
2023/12/31 01:03:14;;;;;;;;;5.00;4.00;;;;;12.12;83.24;99759.44;5061448;28;45479;-63
2023/12/31 01:05:39;;;;;;;;;5.25;5.25;;;;;12.17;83.34;99761.88;5079588;28;56546;-63
2023/12/31 01:08:04;;;;;;;;;8.00;6.00;;;;;12.00;83.47;99728.00;5079765;28;46759;-63
2023/12/31 01:10:30;;;;;;;;;6.25;6.00;;;;;12.13;83.53;99741.56;5080013;28;45474;-63
2023/12/31 01:12:55;;;;;;;;;6.75;6.00;;;;;12.14;83.30;99722.75;5061158;28;53232;-63
2023/12/31 01:15:22;;;;;;;;;6.00;5.00;;;;;12.15;83.35;99718.28;5080066;28;45425;-63
2023/12/31 01:17:48;;;;;;;;;5.50;5.50;;;;;12.07;83.22;99691.94;5079312;28;46348;-63
2023/12/31 01:20:14;;;;;;;;;5.50;4.50;;;;;12.19;83.17;99711.81;5077139;28;45445;-63
2023/12/31 01:22:39;;;;;;;;;5.00;5.00;;;;;12.15;83.54;99710.25;5078682;28;45468;-63
2023/12/31 01:25:05;;;;;;;;;4.25;4.25;;;;;12.18;83.28;99712.78;5078922;28;45517;-63
2023/12/31 01:27:30;;;;;;;;;7.25;5.75;;;;;12.17;82.87;99698.50;5079532;28;45422;-63
2023/12/31 01:29:56;;;;;;;;;6.00;5.00;;;;;12.16;83.11;99670.06;5079875;28;45351;-63
2023/12/31 01:32:21;;;;;;;;;4.50;4.50;;;;;12.07;83.11;99653.66;5079488;28;45821;-63
2023/12/31 01:34:46;;;;;;;;;5.00;5.00;;;;;12.10;82.82;99674.88;5077653;28;60537;-63
2023/12/31 01:37:12;;;;;;;;;6.25;5.75;;;;;12.14;82.76;99681.78;5079407;28;45407;-63
2023/12/31 01:39:37;;;;;;;;;4.25;4.25;;;;;12.15;82.87;99659.44;5069062;28;53110;-63
2023/12/31 01:42:02;;;;;;;;;4.25;4.00;;;;;12.09;82.80;99636.53;5075992;28;45379;-63
2023/12/31 01:44:28;;;;;;;;;4.50;4.00;;;;;12.16;82.78;99635.28;5079274;27;45326;-63
2023/12/31 01:46:54;;;;;;;;;4.75;4.75;;;;;12.15;82.75;99636.22;5079275;28;47104;-63
2023/12/31 01:49:20;;;;;;;;;5.50;4.00;;;;;12.16;82.87;99645.97;5077093;28;45592;-63
2023/12/31 01:51:45;;;;;;;;;6.00;5.50;;;;;12.16;82.83;99647.75;5077184;28;45474;-63
2023/12/31 01:54:11;;;;;;;;;5.75;4.75;;;;;12.13;82.69;99634.56;5079468;28;45489;-63
2023/12/31 01:56:39;;;;;;;;;4.75;4.75;;;;;12.08;82.57;99641.97;5060939;28;45551;-63
2023/12/31 01:59:06;;;;;;;;;4.00;4.00;;;;;12.09;82.59;99623.16;5079515;28;45484;-63
2023/12/31 02:01:32;;;;;;;;;5.00;5.00;;;;;12.17;82.59;99630.78;5060706;28;45450;-63
2023/12/31 02:03:58;;;;;;;;;6.75;6.00;;;;;12.13;82.44;99599.78;5078263;28;45522;-63
2023/12/31 02:06:24;;;;;;;;;6.75;5.50;;;;;12.12;82.52;99598.94;5078866;28;45314;-63
2023/12/31 02:08:49;;;;;;;;;3.25;3.25;;;;;12.18;82.52;99595.91;5072470;28;45348;-63
2023/12/31 02:11:16;;;;;;;;;4.25;4.25;;;;;12.16;82.21;99594.25;5060788;28;45359;-63
2023/12/31 02:13:41;;;;;;;;;4.50;4.50;;;;;12.03;82.46;99578.06;5060943;28;45545;-63
2023/12/31 02:16:14;;;;;;;;;5.50;5.00;;;;;12.16;82.15;99576.41;5057206;28;47297;-63
2023/12/31 02:18:39;;;;;;;;;4.75;4.50;;;;;12.19;81.99;99576.22;5071233;28;45364;-63
2023/12/31 02:21:05;;;;;;;;;3.75;3.75;;;;;12.17;82.01;99587.97;5077046;28;45771;-63
2023/12/31 02:23:30;;;;;;;;;4.00;4.00;;;;;12.13;82.27;99583.72;5071667;28;45354;-63
2023/12/31 02:26:23;;;;;;;;;4.00;4.00;;;;;12.17;82.19;99569.25;5078642;28;45460;-63
2023/12/31 02:28:48;;;;;;;;;5.00;4.00;;;;;12.08;82.18;99526.97;5053031;28;46153;-63
2023/12/31 02:31:14;;;;;;;;;5.00;4.50;;;;;12.16;82.07;99552.34;5078981;28;45302;-63
2023/12/31 02:33:39;;;;;;;;;7.25;5.00;;;;;12.09;81.83;99532.22;5056868;28;45404;-63
2023/12/31 02:36:05;;;;;;;;;2.25;2.25;;;;;12.10;82.04;99544.66;5068377;28;62464;-63
2023/12/31 02:38:30;;;;;;;;;6.50;6.00;;;;;12.10;82.15;99525.94;5059651;28;45671;-63
2023/12/31 02:40:56;;;;;;;;;3.75;3.75;;;;;12.15;82.16;99523.00;5065911;28;45582;-63
2023/12/31 02:43:21;;;;;;;;;3.00;3.00;;;;;12.21;81.93;99527.97;5078541;28;45627;-63
2023/12/31 02:45:46;;;;;;;;;4.00;4.00;;;;;12.14;81.66;99511.41;5078264;28;59084;-63
2023/12/31 02:48:12;;;;;;;;;2.75;2.75;;;;;12.14;81.80;99503.41;5078569;28;45397;-63
2023/12/31 02:50:37;;;;;;;;;4.00;4.00;;;;;12.25;81.56;99518.84;5076421;28;45326;-63
2023/12/31 02:53:03;;;;;;;;;3.25;3.25;;;;;12.27;81.43;99524.09;5078145;28;58080;-63
2023/12/31 02:55:28;;;;;;;;;2.50;2.00;;;;;12.26;81.39;99517.00;5078730;28;45377;-63
2023/12/31 02:57:53;;;;;;;;;3.25;2.75;;;;;12.17;81.42;99524.63;5081850;28;45411;-63
2023/12/31 03:00:19;;;;;;;;;6.50;4.00;;;;;12.31;81.55;99530.97;5082345;28;45366;-63
2023/12/31 03:02:44;;;;;;;;;3.00;3.00;;;;;12.23;81.22;99507.38;5081610;28;45438;-63
2023/12/31 03:05:12;;;;;;;;;4.00;4.00;;;;;12.27;81.09;99502.69;5082026;28;45542;-63
2023/12/31 03:07:38;;;;;;;;;2.25;2.25;;;;;12.29;81.30;99506.97;5074580;28;45327;-63
2023/12/31 03:10:04;;;;;;;;;4.00;4.00;;;;;12.32;81.36;99508.63;5082180;28;45247;-63
2023/12/31 03:12:29;;;;;;;;;2.50;2.50;;;;;12.28;81.18;99504.41;5081792;28;45368;-63
2023/12/31 03:14:55;;;;;;;;;2.75;2.00;;;;;12.37;80.99;99507.38;5081823;28;45312;-63
2023/12/31 03:17:21;;;;;;;;;3.75;3.75;;;;;12.34;81.10;99488.84;5081594;28;45554;-63
2023/12/31 03:19:48;;;;;;;;;3.25;3.25;;;;;12.35;80.70;99505.78;5080700;28;45437;-63
2023/12/31 03:22:13;;;;;;;;;4.75;3.75;;;;;12.39;81.00;99491.25;5081492;28;45620;-63
2023/12/31 03:24:41;;;;;;;;;2.50;2.50;;;;;12.39;81.10;99475.19;5081501;28;46851;-63
2023/12/31 03:27:06;;;;;;;;;2.50;2.50;;;;;12.42;81.17;99443.75;5081590;28;45619;-63
2023/12/31 03:29:32;;;;;;;;;2.75;2.75;;;;;12.32;81.65;99460.47;5081813;28;45716;-63
2023/12/31 03:31:57;;;;;;;;;3.00;3.00;;;;;12.41;81.94;99455.44;5081506;28;45430;-63
2023/12/31 03:34:22;;;;;;;;;3.50;3.50;;;;;12.37;81.92;99442.31;5081337;28;45315;-63
2023/12/31 03:36:48;;;;;;;;;3.50;3.50;;;;;12.41;81.78;99443.84;5081478;28;45363;-63
2023/12/31 03:39:14;;;;;;;;;3.25;3.00;;;;;12.48;81.50;99439.84;5056520;28;45341;-63
2023/12/31 03:41:39;;;;;;;;;3.75;3.75;;;;;12.42;81.51;99418.81;5074390;28;45552;-62
2023/12/31 03:44:05;;;;;;;;;2.50;2.50;;;;;12.43;81.28;99417.88;5081492;28;45299;-63
2023/12/31 03:46:31;;;;;;;;;4.50;3.75;;;;;12.48;81.30;99412.22;5062213;28;67688;-63
2023/12/31 03:48:56;;;;;;;;;3.50;3.00;;;;;12.52;81.28;99409.25;5063684;28;45320;-63
2023/12/31 03:51:21;;;;;;;;;3.25;3.00;;;;;12.50;80.54;99411.16;5074437;28;45792;-63
2023/12/31 03:53:47;;;;;;;;;3.00;2.50;;;;;12.60;81.04;99414.16;5081107;28;45390;-63
2023/12/31 03:56:12;;;;;;;;;1.00;1.00;;;;;12.49;81.16;99387.19;5081158;28;45382;-63
2023/12/31 03:58:38;;;;;;;;;3.25;3.00;;;;;12.65;81.45;99400.47;5081227;28;45499;-63
2023/12/31 04:01:03;;;;;;;;;2.75;2.75;;;;;12.56;81.90;99402.78;5076647;28;46048;-63
2023/12/31 04:03:29;;;;;;;;;1.75;1.75;;;;;12.67;81.98;99395.88;5080627;28;45336;-63
2023/12/31 04:05:54;;;;;;;;;3.00;3.00;;;;;12.68;82.60;99400.25;5080779;28;45353;-63
2023/12/31 04:08:19;;;;;;;;;2.50;2.00;;;;;12.55;82.40;99397.50;5080400;28;58781;-63
2023/12/31 04:10:44;;;;;;;;;2.00;2.00;;;;;12.66;82.72;99421.78;5061951;28;66587;-63
2023/12/31 04:13:10;;;;;;;;;4.50;3.00;;;;;12.57;83.33;99439.28;5080552;28;58665;-63
2023/12/31 04:15:35;;;;;;;;;2.00;2.00;;;;;12.59;83.11;99437.34;5062561;28;45407;-63
2023/12/31 04:18:00;;;;;;;;;3.75;3.75;;;;;12.39;83.45;99408.28;5080478;28;45336;-63
2023/12/31 04:20:26;;;;;;;;;2.00;2.00;;;;;12.53;83.85;99435.06;5080808;28;45299;-63
2023/12/31 04:22:51;;;;;;;;;2.00;1.00;;;;;12.53;83.81;99432.41;5071848;28;46286;-63
2023/12/31 04:25:16;;;;;;;;;2.00;2.00;;;;;12.48;84.01;99397.03;5080446;28;45311;-63
2023/12/31 04:27:44;;;;;;;;;1.25;1.00;;;;;12.46;84.00;99387.38;5080792;28;45448;-63
2023/12/31 04:30:10;;;;;;;;;0.75;0.75;;;;;12.41;84.14;99364.44;5079417;28;45264;-63
2023/12/31 04:32:36;;;;;;;;;2.00;1.00;;;;;12.41;83.30;99368.91;5080382;28;47048;-63
2023/12/31 04:35:01;;;;;;;;;0.75;0.75;;;;;12.38;83.48;99390.53;5080539;28;45402;-63
2023/12/31 04:37:27;;;;;;;;;1.00;1.00;;;;;12.25;83.70;99376.19;5080673;28;45284;-63
2023/12/31 04:39:52;;;;;;;;;0.00;0.00;;;;;12.29;83.28;99391.06;5068159;28;45529;-63
2023/12/31 04:42:17;;;;;;;;;0.00;0.00;;;;;12.29;83.38;99391.06;5060377;28;46982;-63
2023/12/31 04:44:43;;;;;;;;;0.00;0.00;;;;;12.28;83.31;99381.31;5080509;28;45413;-63
2023/12/31 04:47:09;;;;;;;;;0.00;0.00;;;;;12.22;83.55;99367.38;5080626;28;45363;-63
2023/12/31 04:49:34;;;;;;;;;1.00;0.00;;;;;12.27;83.14;99377.78;5080098;28;45555;-63
2023/12/31 04:51:59;;;;;;;;;0.00;0.00;;;;;12.23;82.97;99376.28;5061945;28;46109;-63
2023/12/31 04:54:25;;;;;;;;;0.00;0.00;;;;;12.28;83.00;99373.28;5080335;28;45492;-63
2023/12/31 04:56:50;;;;;;;;;0.00;0.00;;;;;12.20;82.98;99381.81;5080269;28;45397;-63
2023/12/31 04:59:15;;;;;;;;;0.00;0.00;;;;;12.17;82.49;99390.00;5080307;28;45312;-63
2023/12/31 05:01:41;;;;;;;;;0.00;0.00;;;;;12.17;82.58;99388.19;5076451;28;55812;-63
2023/12/31 05:04:06;;;;;;;;;0.50;0.00;;;;;12.13;82.46;99394.69;5078860;28;45393;-63
2023/12/31 05:06:32;;;;;;;;;0.00;0.00;;;;;12.10;82.44;99391.34;5061459;28;45615;-63
2023/12/31 05:08:58;;;;;;;;;0.00;0.00;;;;;12.10;82.98;99383.31;5073201;28;45275;-63
2023/12/31 05:11:25;;;;;;;;;0.00;0.00;;;;;12.04;82.79;99380.06;5061686;28;46089;-63
2023/12/31 05:13:50;;;;;;;;;0.00;0.00;;;;;12.11;82.49;99393.94;5061762;28;45888;-63
2023/12/31 05:16:15;;;;;;;;;0.00;0.00;;;;;12.09;82.07;99377.09;5061868;28;45427;-63
2023/12/31 05:18:43;;;;;;;;;0.00;0.00;;;;;12.08;82.28;99374.50;5060757;28;45578;-63
2023/12/31 05:21:09;;;;;;;;;0.00;0.00;;;;;12.03;81.56;99364.09;5078424;28;46064;-63
2023/12/31 05:23:35;;;;;;;;;0.00;0.00;;;;;11.98;81.91;99388.44;5054911;28;45511;-63
2023/12/31 05:26:00;;;;;;;;;0.00;0.00;;;;;11.95;81.93;99377.06;5079965;28;45441;-63
2023/12/31 05:28:26;;;;;;;;;0.75;0.00;;;;;11.88;82.08;99363.19;5061574;28;45573;-63
2023/12/31 05:30:51;;;;;;;;;0.00;0.00;;;;;11.86;81.05;99384.66;5078736;28;46287;-63
2023/12/31 05:33:16;;;;;;;;;0.00;0.00;;;;;11.81;81.24;99386.75;5078105;28;46376;-63
2023/12/31 05:35:42;;;;;;;;;0.00;0.00;;;;;11.68;81.07;99375.06;5079831;28;45497;-63
2023/12/31 05:38:07;;;;;;;;;0.50;0.00;;;;;11.74;80.83;99377.34;5079574;28;45363;-63
2023/12/31 05:40:32;;;;;;;;;0.75;0.00;;;;;11.64;80.72;99362.81;5065238;28;64002;-63
2023/12/31 05:42:58;;;;;;;;;0.00;0.00;;;;;11.75;80.96;99371.06;5061040;28;48290;-63
2023/12/31 05:45:23;;;;;;;;;0.00;0.00;;;;;11.72;80.70;99338.31;5079583;28;45367;-63
2023/12/31 05:47:48;;;;;;;;;1.00;0.00;;;;;11.55;80.68;99301.91;5060246;28;68857;-63
2023/12/31 05:50:14;;;;;;;;;0.00;0.00;;;;;11.66;80.35;99328.81;5060978;28;46057;-63
2023/12/31 05:52:40;;;;;;;;;0.00;0.00;;;;;11.71;80.36;99321.41;5079618;28;45256;-63
2023/12/31 05:55:05;;;;;;;;;1.00;0.00;;;;;11.72;80.05;99333.81;5079412;28;45402;-63
2023/12/31 05:57:31;;;;;;;;;1.00;0.00;;;;;11.67;80.06;99325.22;5079292;28;45449;-63
2023/12/31 05:59:56;;;;;;;;;0.00;0.00;;;;;11.65;79.55;99319.94;5058838;28;53699;-63
2023/12/31 06:02:22;;;;;;;;;0.00;0.00;;;;;11.71;79.88;99332.09;5076729;28;45374;-63
2023/12/31 06:04:47;;;;;;;;;1.00;0.00;;;;;11.70;79.75;99343.75;5060690;28;45422;-63
2023/12/31 06:07:12;;;;;;;;;0.00;0.00;;;;;11.63;79.43;99345.91;5079116;28;45372;-63
2023/12/31 06:09:38;;;;;;;;;0.00;0.00;;;;;11.61;79.57;99341.59;5078693;28;58176;-63
2023/12/31 06:12:03;;;;;;;;;0.00;0.00;;;;;11.63;79.94;99345.91;5079147;28;45498;-63
2023/12/31 06:14:29;;;;;;;;;1.00;0.00;;;;;11.59;79.52;99356.88;5079225;28;45473;-63
2023/12/31 06:16:54;;;;;;;;;0.00;0.00;;;;;11.54;79.57;99373.16;5079157;28;45485;-63
2023/12/31 06:19:19;;;;;;;;;0.00;0.00;;;;;11.53;79.40;99346.53;5060181;28;51611;-63
2023/12/31 06:21:45;;;;;;;;;0.00;0.00;;;;;11.49;79.41;99338.72;5072627;28;45335;-63
2023/12/31 06:24:10;;;;;;;;;0.00;0.00;;;;;11.55;79.18;99372.22;5076682;28;45445;-63
2023/12/31 06:26:35;;;;;;;;;0.00;0.00;;;;;11.58;78.83;99373.88;5079035;28;45387;-63
2023/12/31 06:29:00;;;;;;;;;0.00;0.00;;;;;11.57;78.47;99370.31;5078956;28;45358;-63
2023/12/31 06:31:26;;;;;;;;;0.00;0.00;;;;;11.59;78.27;99396.97;5079667;28;46197;-63
2023/12/31 06:33:52;;;;;;;;;0.00;0.00;;;;;11.54;78.12;99391.88;5056023;28;45383;-63
2023/12/31 06:36:17;;;;;;;;;0.00;0.00;;;;;11.27;78.48;99352.44;5079200;28;45330;-63
2023/12/31 06:38:43;;;;;;;;;0.00;0.00;;;;;11.52;77.78;99404.47;5079831;28;45522;-62
2023/12/31 06:41:08;;;;;;;;;0.00;0.00;;;;;11.52;77.86;99411.63;5070670;28;61688;-63
2023/12/31 06:43:36;;;;;;;;;0.50;0.00;;;;;11.57;77.00;99431.78;5082161;28;45368;-63
2023/12/31 06:46:03;;;;;;;;;0.00;0.00;;;;;11.59;77.12;99435.22;5082429;28;45390;-63
2023/12/31 06:48:28;;;;;;;;;0.00;0.00;;;;;11.55;77.08;99416.81;5081847;28;46069;-63
2023/12/31 06:50:54;;;;;;;;;0.00;0.00;;;;;11.56;77.15;99423.84;5082019;28;45428;-63
2023/12/31 06:53:19;;;;;;;;;0.00;0.00;;;;;11.55;77.30;99427.50;5063842;28;45374;-63
2023/12/31 06:55:45;;;;;;;;;1.00;0.00;;;;;11.54;77.11;99420.41;5082067;28;45448;-63
2023/12/31 06:58:11;;;;;;;;;1.00;0.00;;;;;11.58;76.88;99422.84;5081866;28;45903;-63
2023/12/31 07:00:36;;;;;;;;;0.00;0.00;;;;;11.55;77.00;99432.84;5079608;28;45287;-63
2023/12/31 07:03:01;;;;;;;;;0.00;0.00;;;;;11.58;76.86;99451.38;5081206;28;52562;-63
2023/12/31 07:05:26;;;;;;;;;0.00;0.00;;;;;11.55;76.79;99460.41;5082071;28;45391;-63
2023/12/31 07:07:52;;;;;;;;;0.00;0.00;;;;;11.46;76.91;99448.44;5081682;28;45912;-63
2023/12/31 07:10:17;;;;;;;;;0.75;0.00;;;;;11.33;77.32;99423.38;5082145;28;45280;-63
2023/12/31 07:12:43;;;;;;;;;0.50;0.00;;;;;11.44;76.61;99453.03;5082051;28;45518;-63
2023/12/31 07:15:09;;;;;;;;;0.00;0.00;;;;;11.43;77.09;99475.34;5081672;28;51971;-63
2023/12/31 07:17:35;;;;;;;;;0.00;0.00;;;;;11.49;76.76;99492.81;5081571;28;45907;-63
2023/12/31 07:20:02;;;;;;;;;1.00;0.00;;;;;11.43;76.36;99488.69;5081669;28;45724;-63
2023/12/31 07:22:28;;;;;;;;;1.00;0.00;;;;;11.42;76.44;99492.31;5072263;28;45458;-63
2023/12/31 07:24:53;;;;;;;;;0.00;0.00;;;;;11.44;76.84;99490.44;5081579;28;47701;-63
2023/12/31 07:27:18;;;;;;;;;0.00;0.00;;;;;11.40;76.58;99480.00;5081469;28;47206;-63
2023/12/31 07:29:44;;;;;;;;;0.00;0.00;;;;;11.49;76.59;99501.72;5062137;28;55054;-63
2023/12/31 07:32:09;;;;;;;;;0.75;0.00;;;;;11.42;76.52;99515.50;5081162;28;51752;-63
2023/12/31 07:34:34;;;;;;;;;0.00;0.00;;;;;11.41;76.64;99508.41;5080509;28;45478;-63
2023/12/31 07:37:00;;;;;;;;;0.00;0.00;;;;;11.38;76.50;99509.47;5080733;28;46868;-63
2023/12/31 07:39:26;;;;;;;;;1.00;0.00;;;;;11.37;76.35;99506.88;5071993;28;45652;-67
2023/12/31 07:41:51;;;;;;;;;0.00;0.00;;;;;11.47;76.22;99526.81;5046418;28;45369;-67
2023/12/31 07:44:18;;;;;;;;;0.25;0.00;;;;;11.45;76.24;99526.03;5077197;28;45423;-68
2023/12/31 07:46:43;;;;;;;;;0.00;0.00;;;;;11.31;76.11;99514.28;5062691;28;48367;-68
2023/12/31 07:49:09;;;;;;;;;1.00;0.00;;;;;11.38;76.42;99567.41;5061899;28;45533;-69
2023/12/31 07:51:34;;;;;;;;;0.00;0.00;;;;;11.29;76.63;99558.06;5080899;28;45350;-68
2023/12/31 07:53:59;;;;;;;;;0.00;0.00;;;;;11.33;76.68;99599.69;5062766;28;45392;-68
2023/12/31 07:56:25;;;;;;;;;0.00;0.00;;;;;11.16;76.53;99562.31;5080801;28;45416;-68
2023/12/31 07:58:50;;;;;;;;;0.00;0.00;;;;;11.31;76.73;99596.25;5081299;28;45287;-68
2023/12/31 08:01:15;;;;;;;;;1.00;0.00;;;;;11.35;76.90;99608.50;5078472;28;45414;-67
2023/12/31 08:03:41;;;;;;;;;2.50;0.00;;;;;11.42;76.73;99625.91;5079954;28;45771;-67
2023/12/31 08:06:06;;;;;;;;;0.75;0.00;;;;;11.45;76.38;99631.09;5062669;28;46959;-67
2023/12/31 08:08:31;;;;;;;;;0.00;0.00;;;;;11.43;76.36;99627.66;5073062;28;45452;-68
2023/12/31 08:10:59;;;;;;;;;0.00;0.00;;;;;11.39;76.98;99622.53;5062807;28;45439;-67
2023/12/31 08:13:24;;;;;;;;;0.00;0.00;;;;;11.45;76.79;99646.28;5081133;28;45516;-67
2023/12/31 08:15:50;;;;;;;;;0.00;0.00;;;;;11.47;76.44;99642.56;5067088;28;48232;-62
2023/12/31 08:18:15;;;;;;;;;0.00;0.00;;;;;11.44;76.54;99631.19;5078897;28;45378;-63
2023/12/31 08:20:41;;;;;;;;;0.00;0.00;;;;;11.36;76.61;99625.38;5080105;28;45374;-63
2023/12/31 08:23:06;;;;;;;;;0.00;0.00;;;;;11.32;76.33;99620.19;5071641;28;45387;-63
2023/12/31 08:25:31;;;;;;;;;1.75;1.00;;;;;11.39;76.31;99652.78;5080315;28;45342;-63
2023/12/31 08:27:57;;;;;;;;;1.00;0.00;;;;;11.44;76.59;99656.13;5080773;28;45511;-63
2023/12/31 08:30:23;;;;;;;;;0.25;0.00;;;;;11.41;76.18;99650.03;5080797;28;45470;-63
2023/12/31 08:32:48;;;;;;;;;0.00;0.00;;;;;11.36;76.44;99654.75;5078894;28;45398;-63
2023/12/31 08:35:14;;;;;;;;;1.75;0.00;;;;;11.29;76.67;99657.78;5080332;28;45332;-63
2023/12/31 08:37:39;;;;;;;;;1.00;0.00;;;;;11.28;76.56;99657.84;5079000;27;45340;-63
2023/12/31 08:40:05;;;;;;;;;4.00;0.00;;;;;11.38;76.51;99671.59;5075341;27;45353;-63
2023/12/31 08:42:31;;;;;;;;;0.75;0.00;;;;;11.28;76.67;99661.38;5080022;28;45685;-63
2023/12/31 08:44:57;;;;;;;;;0.00;0.00;;;;;11.35;76.65;99669.94;5078714;28;45549;-63
2023/12/31 08:47:22;;;;;;;;;0.25;0.00;;;;;11.41;76.27;99690.13;5079848;28;45320;-63
2023/12/31 08:49:48;;;;;;;;;1.00;1.00;;;;;11.36;76.75;99697.50;5079553;28;45580;-63
2023/12/31 08:52:13;;;;;;;;;0.00;0.00;;;;;11.39;76.55;99700.03;5080431;28;45466;-63
2023/12/31 08:54:39;;;;;;;;;0.00;0.00;;;;;11.36;76.28;99708.19;5079431;28;45390;-63
2023/12/31 08:57:04;;;;;;;;;1.25;0.00;;;;;11.32;76.31;99710.19;5058603;28;45833;-63
2023/12/31 08:59:30;;;;;;;;;1.75;0.00;;;;;11.26;76.57;99702.47;5076634;27;49542;-63
2023/12/31 09:01:55;;;;;;;;;0.00;0.00;;;;;11.24;76.50;99696.34;5089793;27;46457;-63
2023/12/31 09:04:21;;;;;;;;;2.25;0.00;;;;;11.29;76.32;99705.88;5079044;28;46058;-63
2023/12/31 09:06:47;;;;;;;;;0.00;0.00;;;;;11.30;76.47;99720.09;5079930;28;45540;-63
2023/12/31 09:09:14;;;;;;;;;0.00;0.00;;;;;11.30;76.26;99712.94;5089059;27;45385;-63
2023/12/31 09:11:39;;;;;;;;;0.75;0.00;;;;;11.37;76.29;99717.97;5061805;28;46167;-63
2023/12/31 09:14:04;;;;;;;;;0.00;0.00;;;;;11.28;76.55;99720.16;5078501;28;46935;-63
2023/12/31 09:16:30;;;;;;;;;3.00;1.00;;;;;11.37;76.66;99732.16;5079359;28;45341;-63
2023/12/31 09:18:55;;;;;;;;;0.50;0.00;;;;;11.40;76.21;99749.88;5060418;28;45407;-63
2023/12/31 09:21:20;;;;;;;;;2.75;0.00;;;;;11.33;76.40;99730.63;5061091;28;45943;-63
2023/12/31 09:23:46;;;;;;;;;0.75;0.00;;;;;11.39;76.27;99759.66;5079629;28;45711;-63
2023/12/31 09:26:12;;;;;;;;;0.25;0.25;;;;;11.42;75.92;99758.66;5063443;28;60928;-63
2023/12/31 09:28:39;;;;;;;;;2.00;0.75;;;;;11.40;76.21;99749.88;5082525;27;45368;-63
2023/12/31 09:31:05;;;;;;;;;0.00;0.00;;;;;11.41;76.03;99756.91;5089062;27;45565;-63
2023/12/31 09:33:30;;;;;;;;;2.00;0.00;;;;;11.36;76.10;99758.97;5079336;28;45407;-63
2023/12/31 09:35:56;;;;;;;;;0.00;0.00;;;;;11.42;76.38;99766.69;5074687;28;45542;-63
2023/12/31 09:38:21;;;;;;;;;1.50;1.00;;;;;11.40;75.90;99765.91;5079170;27;45382;-63
2023/12/31 09:40:48;;;;;;;;;1.25;0.50;;;;;11.38;76.06;99771.31;5073209;27;45826;-63
2023/12/31 09:43:19;;;;;;;;;1.00;0.75;;;;;11.38;76.36;99783.81;5059549;28;47111;-63
2023/12/31 09:45:47;;;;;;;;;3.25;0.25;;;;;11.40;76.39;99779.25;5075042;28;45383;-63
2023/12/31 09:48:15;;;;;;;;;0.75;0.00;;;;;11.36;76.24;99770.53;5058985;27;45426;-63
2023/12/31 09:50:41;;;;;;;;;2.00;1.00;;;;;11.43;76.13;99793.31;5076769;28;45614;-63
2023/12/31 09:53:07;;;;;;;;;0.00;0.00;;;;;11.37;75.98;99776.75;5077022;28;46037;-63
2023/12/31 09:55:34;;;;;;;;;0.25;0.25;;;;;11.45;75.98;99788.75;5077295;28;45484;-63
2023/12/31 09:58:00;;;;;;;;;3.00;2.00;;;;;11.34;75.60;99759.03;5078151;28;45386;-63
2023/12/31 10:00:25;;;;;;;;;0.00;0.00;;;;;11.40;75.85;99769.44;5080883;27;45567;-63
2023/12/31 10:02:54;;;;;;;;;4.25;1.75;;;;;11.48;75.76;99780.59;5069682;28;61183;-63
2023/12/31 10:05:25;;;;;;;;;1.00;0.00;;;;;11.42;75.28;99761.34;5059610;28;45778;-63
2023/12/31 10:07:52;;;;;;;;;1.50;1.00;;;;;11.54;75.15;99784.75;5077919;28;45518;-63
2023/12/31 10:10:18;;;;;;;;;2.25;1.00;;;;;11.46;75.07;99766.44;5060167;28;45429;-63
2023/12/31 10:12:43;;;;;;;;;2.00;2.00;;;;;11.63;74.91;99775.41;5077432;28;46597;-63
2023/12/31 10:15:09;;;;;;;;;1.25;1.25;;;;;11.66;74.70;99789.47;5077338;28;51088;-62
2023/12/31 10:17:40;;;;;;;;;3.00;1.50;;;;;11.66;74.96;99781.44;5072854;28;45532;-63
2023/12/31 10:20:07;;;;;;;;;1.00;0.50;;;;;11.66;74.64;99791.25;5071982;28;45648;-63
2023/12/31 10:22:34;;;;;;;;;3.25;2.00;;;;;11.62;74.58;99782.53;5074246;28;45461;-63
2023/12/31 10:25:15;;;;;;;;;1.25;1.00;;;;;11.67;74.02;99779.63;5077603;28;45561;-64
2023/12/31 10:27:48;;;;;;;;;4.25;0.25;;;;;11.70;74.41;99786.63;5053425;28;45713;-63
2023/12/31 10:30:14;;;;;;;;;2.75;1.00;;;;;11.74;73.89;99777.50;5071513;27;45509;-63
2023/12/31 10:32:40;;;;;;;;;2.25;0.25;;;;;11.74;74.19;99766.81;5076719;28;46198;-63
2023/12/31 10:35:06;;;;;;;;;3.50;2.00;;;;;11.79;74.35;99778.97;5077040;28;45546;-63
2023/12/31 10:37:31;;;;;;;;;1.25;1.25;;;;;11.82;74.43;99773.47;5076273;28;45437;-63
2023/12/31 10:39:57;;;;;;;;;0.00;0.00;;;;;11.82;73.84;99770.78;5072169;27;45724;-63
2023/12/31 10:42:22;;;;;;;;;3.25;1.50;;;;;11.85;74.11;99772.47;5075748;28;45974;-64
2023/12/31 10:44:53;;;;;;;;;2.00;1.00;;;;;11.95;73.78;99783.56;5076545;28;59277;-64
2023/12/31 10:47:18;;;;;;;;;4.00;3.00;;;;;11.92;74.11;99762.34;5063509;28;45507;-65
2023/12/31 10:49:48;;;;;;;;;3.75;1.00;;;;;11.90;73.66;99754.34;5080470;27;45800;-65
2023/12/31 10:52:15;;;;;;;;;3.50;2.00;;;;;11.98;74.10;99775.38;5059158;28;48411;-67
2023/12/31 10:54:51;;;;;;;;;3.25;2.00;;;;;11.79;73.46;99730.84;5061387;28;45703;-62
2023/12/31 10:57:17;;;;;;;;;5.25;2.75;;;;;11.79;73.23;99730.84;5056311;28;45557;-62
2023/12/31 10:59:43;;;;;;;;;3.75;1.50;;;;;11.94;73.38;99739.03;5077107;27;45479;-62
2023/12/31 11:02:28;;;;;;;;;1.00;1.00;;;;;11.92;73.05;99727.56;5077208;28;45536;-62
2023/12/31 11:04:55;;;;;;;;;2.25;0.50;;;;;11.99;72.44;99740.50;5054656;28;45515;-62
2023/12/31 11:07:20;;;;;;;;;4.25;2.00;;;;;11.99;72.76;99736.97;5055094;28;45537;-62
2023/12/31 11:09:48;;;;;;;;;3.00;2.25;;;;;12.09;72.68;99738.19;5078303;27;45443;-62
2023/12/31 11:12:15;;;;;;;;;9.25;2.50;;;;;11.94;72.49;99712.28;5074545;28;46302;-63
2023/12/31 11:14:49;;;;;;;;;2.50;1.50;;;;;12.15;72.23;99742.38;5076788;28;45665;-63
2023/12/31 11:17:18;;;;;;;;;3.00;2.00;;;;;12.15;71.99;99732.53;5059875;28;45507;-62
2023/12/31 11:20:20;;;;;;;;;5.00;1.00;;;;;12.18;71.24;99743.06;5079527;27;45609;-62
2023/12/31 11:23:04;;;;;;;;;3.00;1.00;;;;;12.15;70.92;99735.19;5079504;28;45688;-62
2023/12/31 11:25:31;;;;;;;;;2.00;2.00;;;;;12.10;70.67;99718.53;5079773;28;45397;-63
2023/12/31 11:27:57;;;;;;;;;3.75;2.25;;;;;12.16;70.67;99720.00;5080647;27;45620;-62